Latest Weather Observations for Mount Keith

IDW60801

Issued at 10:33 pm WST Monday 29 November 2021 (issued every 10 minutes, with the page automatically refreshed every 10 minutes)

About weather observations | Map of weather stations | Latest weather observations for WA | Other Formats
Station Details ID: 512019 Name: MOUNT KEITH Lat: -27.29 Lon: 120.55 Height: 542.33 m
Data from the previous 72 hours. | See also: Recent months for locations in Western Australia
Date/Time
WST
Temp
°C
App
Temp
°C
Dew
Point
°C
Rel
Hum
%
Delta-T
°C
Wind Press
QNH
hPa
Press
MSL
hPa
Rain since
9am
mm
Dir  Spd
km/h
Gust
km/h
Spd
kts
Gust
kts
29/10:30pm 26.8 23.2 -2.0 15 13.3 NE 7 7 4 4 1010.5 1007.1 0.0
29/10:00pm 28.4 24.7 -2.6 13 14.4 NNW 7 11 4 6 1010.7 1007.3 0.0
29/09:30pm 28.7 25.1 -3.5 12 14.7 NNE 6 7 3 4 1010.7 1007.3 0.0
29/09:00pm 29.5 25.4 -2.9 12 15.1 NNE 9 13 5 7 1010.8 1007.4 0.0
29/08:30pm 30.0 26.2 -3.6 11 15.5 NNE 7 7 4 4 1010.8 1007.4 0.0
29/08:00pm 29.8 26.0 -3.8 11 15.4 NE 7 9 4 5 1010.6 1007.2 0.0
29/07:30pm 31.3 27.6 -2.6 11 16.0 WNW 7 9 4 5 1010.3 1006.9 0.0
29/07:00pm 33.7 29.9 -5.1 8 17.9 WSW 6 7 3 4 1010.0 1006.5 0.0
29/06:30pm 35.7 31.9 -5.4 7 19.2 WSW 6 9 3 5 1009.9 1006.4 0.0
29/06:00pm 36.8 31.6 -6.6 6 20.0 WSW 13 19 7 10 1009.9 1006.4 0.0
29/05:30pm 36.7 32.4 -4.7 7 19.7 SSW 9 15 5 8 1009.7 1006.2 0.0
29/05:00pm 36.8 32.1 -4.6 7 19.7 SSW 11 20 6 11 1009.8 1006.3 0.0
29/04:30pm 37.4 32.6 -6.2 6 20.3 WSW 11 22 6 12 1009.8 1006.3 0.0
29/04:00pm 37.1 32.1 -4.4 7 19.9 WSW 13 22 7 12 1009.9 1006.4 0.0
29/03:30pm 37.0 32.7 -4.4 7 19.8 SSW 9 20 5 11 1010.3 1006.9 0.0
29/03:00pm 36.2 30.4 -5.0 7 19.4 WNW 17 32 9 17 1010.7 1007.3 0.0
29/02:30pm 36.6 31.9 -4.7 7 19.6 SSW 11 17 6 9 1010.9 1007.5 0.0
29/02:00pm 36.5 32.4 -3.0 8 19.3 SSW 9 17 5 9 1011.4 1007.9 0.0
29/01:30pm 36.6 32.1 -3.0 8 19.3 W 11 20 6 11 1011.7 1008.2 0.0
29/01:00pm 36.3 31.0 -3.2 8 19.2 SW 15 26 8 14 1012.2 1008.8 0.0
29/12:30pm 35.6 31.0 -3.7 8 18.8 SW 11 35 6 19 1012.8 1009.4 0.0
29/12:00pm 35.1 30.1 -4.1 8 18.6 S 13 20 7 11 1013.3 1009.8 0.0
29/11:30am 34.4 29.9 -3.0 9 18.0 SE 11 20 6 11 1013.9 1010.5 0.0
29/11:00am 34.2 29.7 -3.2 9 17.9 NW 11 17 6 9 1014.3 1010.9 0.0
29/10:30am 33.5 28.9 -3.7 9 17.5 WNW 11 15 6 8 1014.7 1011.3 0.0
29/10:00am 32.6 27.4 -2.9 10 16.9 N 15 24 8 13 1014.9 1011.5 0.0
29/09:30am 32.1 26.1 -3.3 10 16.6 NNW 19 28 10 15 1015.3 1011.9 0.0
29/09:00am 31.2 25.1 -2.7 11 16.0 NNE 20 28 11 15 1015.4 1012.0 0.0
29/08:30am 30.1 23.8 -1.3 13 15.1 N 22 32 12 17 1015.3 1011.9 0.0
29/08:00am 28.7 22.3 -1.4 14 14.3 NNE 22 30 12 16 1015.4 1012.0 0.0
29/07:30am 26.9 21.3 -0.2 17 12.9 NNE 19 28 10 15 1015.5 1012.1 0.0
29/07:00am 25.4 19.6 0.1 19 12.0 NE 20 26 11 14 1015.4 1012.0 0.0
29/06:30am 23.8 19.0 0.2 21 11.1 NE 15 20 8 11 1015.2 1011.7 0.0
29/06:00am 21.8 18.2 0.9 25 9.8 NE 9 13 5 7 1014.9 1011.5 0.0
29/05:30am 19.4 15.8 0.9 29 8.5 NE 9 9 5 5 1014.7 1011.3 0.0
29/05:00am 17.5 14.4 1.5 34 7.3 NNE 7 9 4 5 1014.5 1011.1 0.0
29/04:30am 16.9 14.9 0.1 32 7.5 CALM 0 0 0 0 1014.1 1010.7 0.0
29/04:00am 17.4 14.3 0.1 31 7.7 ENE 6 6 3 3 1014.1 1010.7 0.0
29/03:30am 18.7 16.3 -0.2 28 8.5 SE 2 6 1 3 1013.8 1010.4 0.0
29/03:00am 19.5 16.1 -0.5 26 9.0 E 7 9 4 5 1013.7 1010.3 0.0
29/02:30am 21.1 16.9 -0.8 23 9.9 ENE 11 13 6 7 1013.5 1010.0 0.0
29/02:00am 21.4 17.2 -1.2 22 10.2 NE 11 13 6 7 1013.4 1009.9 0.0
29/01:30am 20.9 16.4 -0.4 24 9.7 NE 13 13 7 7 1013.5 1010.0 0.0
29/01:00am 20.5 18.4 -0.7 24 9.6 CALM 0 0 0 0 1013.9 1010.5 0.0
29/12:30am 21.4 19.0 -0.6 23 10.0 SE 2 6 1 3 1014.3 1010.9 0.0
29/12:00am 22.0 18.4 -2.0 20 10.7 SE 7 9 4 5 1014.5 1011.1 0.0
 
Date/Time
WST
Temp
°C
App
Temp
°C
Dew
Point
°C
Rel
Hum
%
Delta-T
°C
Wind Press
QNH
hPa
Press
MSL
hPa
Rain since
9am
mm
Dir  Spd
km/h
Gust
km/h
Spd
kts
Gust
kts
28/11:30pm 22.1 19.3 -0.6 22 10.4 ESE 4 9 2 5 1014.8 1011.4 0.0
28/11:00pm 22.7 19.5 -0.7 21 10.7 ESE 6 6 3 3 1014.9 1011.5 0.0
28/10:30pm 23.0 19.2 -1.1 20 11.0 ESE 9 9 5 5 1015.2 1011.7 0.0
28/10:00pm 23.6 20.2 -0.6 20 11.2 ESE 7 7 4 4 1015.4 1012.0 0.0
28/09:30pm 24.4 20.9 -1.4 18 11.8 SE 7 9 4 5 1015.6 1012.2 0.0
28/09:00pm 24.9 21.3 -1.8 17 12.2 ESE 7 7 4 4 1015.5 1012.1 0.0
28/08:30pm 25.9 22.2 -2.7 15 13.0 E 7 9 4 5 1015.3 1011.9 0.0
28/08:00pm 27.5 23.4 -3.3 13 14.0 SE 9 9 5 5 1014.9 1011.5 0.0
28/07:30pm 28.7 24.5 -3.5 12 14.7 SE 9 11 5 6 1014.8 1011.4 0.0
28/07:00pm 30.2 25.7 -3.5 11 15.6 ESE 11 13 6 7 1014.6 1011.2 0.0
28/06:30pm 31.6 27.3 -5.1 9 16.7 ESE 9 15 5 8 1014.3 1010.9 0.0
28/06:00pm 32.4 27.8 -4.5 9 17.0 SE 11 17 6 9 1014.0 1010.6 0.0
28/05:30pm 32.8 27.0 -4.2 9 17.2 SSE 17 22 9 12 1013.8 1010.4 0.0
28/05:00pm 33.2 27.9 -3.9 9 17.4 SE 15 20 8 11 1013.7 1010.3 0.0
28/04:30pm 33.4 28.1 -3.7 9 17.5 SE 15 22 8 12 1013.7 1010.3 0.0
28/04:00pm 33.5 28.2 -3.7 9 17.6 SSE 15 24 8 13 1013.9 1010.5 0.0
28/03:30pm 33.0 28.8 -4.0 9 17.3 SSE 9 17 5 9 1014.2 1010.8 0.0
28/03:00pm 32.8 28.0 -2.8 10 17.0 S 13 22 7 12 1014.4 1011.0 0.0
28/02:30pm 33.7 29.2 -3.5 9 17.6 SSE 11 24 6 13 1014.7 1011.3 0.0
28/02:00pm 33.5 27.8 -3.7 9 17.5 S 17 32 9 17 1015.2 1011.7 0.0
28/01:30pm 32.2 28.1 -3.2 10 16.7 SSW 9 20 5 11 1015.6 1012.2 0.0
28/01:00pm 32.5 28.6 -1.7 11 16.5 E 9 17 5 9 1016.0 1012.6 0.0
28/12:30pm 31.5 27.9 -3.8 10 16.4 SE 6 20 3 11 1016.4 1013.0 0.0
28/12:00pm 30.3 25.9 -2.2 12 15.4 NE 11 17 6 9 1016.8 1013.4 0.0
28/11:30am 29.4 24.8 -0.9 14 14.6 SE 13 22 7 12 1017.5 1014.1 0.0
28/11:00am 28.8 24.8 0.5 16 13.9 SE 11 22 6 12 1017.8 1014.4 0.0
28/10:30am 28.9 24.3 1.4 17 13.7 E 15 20 8 11 1018.3 1014.9 0.0
28/10:00am 27.6 23.4 1.9 19 12.8 NE 13 22 7 12 1018.7 1015.4 0.0
28/09:30am 26.7 22.2 1.9 20 12.3 NE 15 24 8 13 1019.1 1015.7 0.0
28/09:00am 25.8 21.4 2.5 22 11.6 NE 15 20 8 11 1019.2 1015.8 0.0
28/08:30am 24.8 20.1 2.9 24 10.9 NE 17 24 9 13 1019.5 1016.1 0.0
28/08:00am 23.6 18.4 2.4 25 10.4 NE 19 24 10 13 1019.6 1016.2 0.0
28/07:30am 22.9 17.6 2.9 27 9.8 ENE 20 26 11 14 1019.8 1016.4 0.0
28/07:00am 22.0 16.6 2.7 28 9.4 ENE 20 28 11 15 1019.7 1016.3 0.0
28/06:30am 20.9 15.7 2.7 30 8.8 NE 19 28 10 15 1019.4 1016.0 0.0
28/06:00am 19.3 15.2 2.2 32 8.1 ENE 13 20 7 11 1019.4 1016.0 0.0
28/05:30am 17.0 14.0 2.2 37 6.9 E 7 9 4 5 1019.2 1015.8 0.0
28/05:00am 16.4 13.0 1.7 37 6.7 E 9 9 5 5 1019.0 1015.6 0.0
28/04:30am 17.7 14.3 1.7 34 7.4 E 9 11 5 6 1018.7 1015.4 0.0
28/04:00am 18.4 15.0 1.9 33 7.7 E 9 13 5 7 1018.4 1015.0 0.0
28/03:30am 19.4 15.2 1.4 30 8.4 E 13 15 7 8 1018.3 1014.9 0.0
28/03:00am 20.1 16.0 2.0 30 8.6 E 13 17 7 9 1018.1 1014.7 0.0
28/02:30am 20.8 15.9 2.1 29 8.9 E 17 22 9 12 1018.0 1014.6 0.0
28/02:00am 21.4 16.5 2.2 28 9.2 E 17 26 9 14 1017.9 1014.5 0.0
28/01:30am 21.4 17.4 2.6 29 9.1 E 13 19 7 10 1018.0 1014.6 0.0
28/01:00am 20.8 17.2 3.1 31 8.6 E 11 13 6 7 1018.1 1014.7 0.0
28/12:30am 20.9 17.3 3.2 31 8.6 ESE 11 13 6 7 1018.1 1014.7 0.0
28/12:00am 21.7 18.1 2.9 29 9.2 ESE 11 15 6 8 1018.1 1014.7 0.0
 
Date/Time
WST
Temp
°C
App
Temp
°C
Dew
Point
°C
Rel
Hum
%
Delta-T
°C
Wind Press
QNH
hPa
Press
MSL
hPa
Rain since
9am
mm
Dir  Spd
km/h
Gust
km/h
Spd
kts
Gust
kts
27/11:30pm 22.0 18.4 3.2 29 9.2 ESE 11 13 6 7 1018.2 1014.8 0.0
27/11:00pm 22.5 19.3 3.1 28 9.5 SE 9 11 5 6 1018.3 1014.9 0.0
27/10:30pm 23.6 20.0 3.0 26 10.2 ESE 11 13 6 7 1018.3 1014.9 0.0
27/10:00pm 24.4 20.7 2.5 24 10.8 ESE 11 15 6 8 1018.3 1014.9 0.0
27/09:30pm 25.3 21.2 2.1 22 11.4 ESE 13 17 7 9 1018.2 1014.8 0.0
27/09:00pm 25.4 21.2 1.5 21 11.6 SE 13 15 7 8 1018.1 1014.7 0.0
27/08:30pm 26.1 22.1 0.7 19 12.3 SE 11 13 6 7 1017.9 1014.5 0.0
27/08:00pm 27.0 22.9 -0.1 17 13.0 SE 11 13 6 7 1017.8 1014.4 0.0
27/07:30pm 27.9 23.4 -0.2 16 13.5 SE 13 17 7 9 1017.6 1014.2 0.0
27/07:00pm 29.0 23.8 -0.2 15 14.1 SE 17 22 9 12 1017.3 1013.9 0.0
27/06:30pm 29.7 23.9 -1.6 13 14.9 ESE 19 22 10 12 1016.8 1013.4 0.0
27/06:00pm 30.4 25.4 -1.1 13 15.2 ESE 15 22 8 12 1016.4 1013.0 0.0
27/05:30pm 31.1 25.4 -0.5 13 15.5 ESE 19 26 10 14 1016.1 1012.7 0.0
27/05:00pm 31.6 27.5 -0.1 13 15.7 ESE 11 17 6 9 1015.9 1012.5 0.0
27/04:30pm 31.6 27.0 -1.2 12 15.9 ESE 13 22 7 12 1015.8 1012.4 0.0
27/04:00pm 31.5 26.6 -0.2 13 15.6 ESE 15 22 8 12 1015.8 1012.4 0.0
27/03:30pm 31.9 27.6 1.1 14 15.6 SE 13 20 7 11 1016.0 1012.6 0.0
27/03:00pm 30.7 25.9 0.2 14 15.1 ESE 15 30 8 16 1016.3 1012.9 0.0
27/02:30pm 30.9 25.8 -1.8 12 15.6 SSE 15 26 8 14 1016.6 1013.2 0.0
27/02:00pm 30.8 25.5 -0.8 13 15.3 ESE 17 30 9 16 1017.1 1013.7 0.0
27/01:30pm 30.3 25.2 0.8 15 14.7 E 17 28 9 15 1017.5 1014.1 0.0
27/01:00pm 30.1 25.7 0.6 15 14.6 SE 13 30 7 16 1017.9 1014.5 0.0
27/12:30pm 29.1 24.9 1.6 17 13.8 SSE 13 20 7 11 1018.1 1014.7 0.0
27/12:00pm 28.9 24.5 0.6 16 13.9 E 13 30 7 16 1018.7 1015.4 0.0
27/11:30am 27.6 22.2 1.2 18 13.0 E 19 32 10 17 1019.3 1015.9 0.0
27/11:00am 27.8 22.9 2.1 19 12.8 ENE 17 24 9 13 1019.8 1016.4 0.0
27/10:30am 27.5 22.7 2.6 20 12.6 E 17 24 9 13 1020.2 1016.8 0.0
27/10:00am 26.4 21.1 1.7 20 12.1 ENE 19 28 10 15 1020.6 1017.3 0.0
27/09:30am 25.2 20.3 4.9 27 10.5 ENE 20 28 11 15 1021.0 1017.6 0.0
27/09:00am 24.9 20.1 5.7 29 10.0 ENE 20 30 11 16 1021.3 1017.9 0.4
27/08:30am 23.9 19.4 6.2 32 9.3 ENE 19 26 10 14 1021.6 1018.2 0.4
27/08:00am 22.9 18.3 6.6 35 8.6 E 20 32 11 17 1021.8 1018.4 0.4
27/07:30am 21.8 16.7 6.1 36 8.1 ENE 22 30 12 16 1022.0 1018.7 0.4
27/07:00am 21.0 15.9 5.8 37 7.8 ENE 22 30 12 16 1021.9 1018.5 0.4
27/06:30am 20.4 14.9 6.0 39 7.4 E 24 33 13 18 1021.8 1018.4 0.4
27/06:00am 19.5 14.6 5.2 39 7.2 E 20 32 11 17 1021.5 1018.1 0.4
27/05:30am 19.0 14.8 4.0 37 7.3 E 15 24 8 13 1021.2 1017.8 0.4
27/05:00am 18.6 14.4 3.6 37 7.2 E 15 20 8 11 1020.8 1017.5 0.4
27/04:30am 19.0 14.3 3.2 35 7.6 E 17 22 9 12 1020.5 1017.2 0.4
27/04:00am 19.2 14.5 3.0 34 7.8 E 17 20 9 11 1020.1 1016.7 0.4
27/03:30am 19.4 15.8 3.2 34 7.8 E 11 19 6 10 1019.9 1016.5 0.4
27/03:00am 20.4 15.7 3.2 32 8.3 E 17 26 9 14 1019.6 1016.2 0.4
27/02:30am 21.1 15.8 2.9 30 8.8 E 20 32 11 17 1019.3 1015.9 0.4
27/02:00am 21.4 16.6 2.6 29 9.1 E 17 26 9 14 1019.1 1015.7 0.4
27/01:30am 21.8 16.6 2.5 28 9.3 E 19 28 10 15 1018.8 1015.5 0.4
27/01:00am 20.5 17.0 3.3 32 8.4 E 11 24 6 13 1018.7 1015.4 0.4
27/12:30am 20.5 17.3 2.8 31 8.5 ESE 9 13 5 7 1018.6 1015.3 0.4
27/12:00am 21.9 17.9 2.6 28 9.4 ESE 13 17 7 9 1018.5 1015.1 0.4
 
Date/Time
WST
Temp
°C
App
Temp
°C
Dew
Point
°C
Rel
Hum
%
Delta-T
°C
Wind Press
QNH
hPa
Press
MSL
hPa
Rain since
9am
mm
Dir  Spd
km/h
Gust
km/h
Spd
kts
Gust
kts
26/11:30pm 22.6 18.6 2.7 27 9.7 ESE 13 17 7 9 1018.6 1015.3 0.4
26/11:00pm 22.5 18.5 2.6 27 9.7 ESE 13 15 7 8 1018.8 1015.5 0.4

Other formats

Comma delimited format used in spreadsheet applications
http://www.bom.gov.au/fwo/IDW60801/IDW60801.99434.axf

JavaScript Object Notation format (JSON) in row-major order
http://www.bom.gov.au/fwo/IDW60801/IDW60801.99434.json

Data quality

Most of these data are generated automatically and are frequently updated. Quality checks on data are not normally performed. It is possible for incorrect values to appear. Refer to information at About Latest Weather Observations and please check the disclaimer before using these data.